sensor_id;sensor_type;location;lat;lon;timestamp;temperature;humidity
11025;DHT22;22890;51.820;8.682;2022-11-25T00:01:20;4.90;99.90
11025;DHT22;22890;51.820;8.682;2022-11-25T00:08:44;4.90;99.90
11025;DHT22;22890;51.820;8.682;2022-11-25T00:11:11;4.90;99.90
11025;DHT22;22890;51.820;8.682;2022-11-25T00:13:39;4.90;99.90
11025;DHT22;22890;51.820;8.682;2022-11-25T00:16:08;4.90;99.90
11025;DHT22;22890;51.820;8.682;2022-11-25T00:21:12;4.90;99.90
11025;DHT22;22890;51.820;8.682;2022-11-25T00:26:11;5.00;99.90
11025;DHT22;22890;51.820;8.682;2022-11-25T00:28:39;5.00;99.90
11025;DHT22;22890;51.820;8.682;2022-11-25T00:31:17;4.90;99.90
11025;DHT22;22890;51.820;8.682;2022-11-25T00:36:28;4.80;99.90
11025;DHT22;22890;51.820;8.682;2022-11-25T00:38:57;4.80;99.90
11025;DHT22;22890;51.820;8.682;2022-11-25T00:41:25;4.70;99.90
11025;DHT22;22890;51.820;8.682;2022-11-25T00:44:12;4.80;99.90
11025;DHT22;22890;51.820;8.682;2022-11-25T00:46:58;4.80;99.90
11025;DHT22;22890;51.820;8.682;2022-11-25T00:51:52;4.80;99.90
11025;DHT22;22890;51.820;8.682;2022-11-25T01:01:40;4.90;99.90
11025;DHT22;22890;51.820;8.682;2022-11-25T01:06:35;4.90;99.90
11025;DHT22;22890;51.820;8.682;2022-11-25T01:09:04;4.90;99.90
11025;DHT22;22890;51.820;8.682;2022-11-25T01:16:28;5.00;99.90
11025;DHT22;22890;51.820;8.682;2022-11-25T01:18:56;5.00;99.90
11025;DHT22;22890;51.820;8.682;2022-11-25T01:21:29;5.00;99.90
11025;DHT22;22890;51.820;8.682;2022-11-25T01:26:23;5.00;99.90
11025;DHT22;22890;51.820;8.682;2022-11-25T01:28:58;5.00;99.90
11025;DHT22;22890;51.820;8.682;2022-11-25T01:31:27;5.00;99.90
11025;DHT22;22890;51.820;8.682;2022-11-25T01:33:57;5.00;99.90
11025;DHT22;22890;51.820;8.682;2022-11-25T01:38:54;5.00;99.90
11025;DHT22;22890;51.820;8.682;2022-11-25T01:41:22;5.00;99.90
11025;DHT22;22890;51.820;8.682;2022-11-25T01:44:14;5.00;99.90
11025;DHT22;22890;51.820;8.682;2022-11-25T01:46:59;5.00;99.90
11025;DHT22;22890;51.820;8.682;2022-11-25T01:52:25;5.00;99.90
11025;DHT22;22890;51.820;8.682;2022-11-25T01:55:08;5.00;99.90
11025;DHT22;22890;51.820;8.682;2022-11-25T01:57:41;5.10;99.90
11025;DHT22;22890;51.820;8.682;2022-11-25T02:02:36;5.00;99.90
11025;DHT22;22890;51.820;8.682;2022-11-25T02:05:08;5.10;99.90
11025;DHT22;22890;51.820;8.682;2022-11-25T02:07:38;5.10;99.90
11025;DHT22;22890;51.820;8.682;2022-11-25T02:10:09;5.10;99.90
11025;DHT22;22890;51.820;8.682;2022-11-25T02:12:39;4.90;99.90
11025;DHT22;22890;51.820;8.682;2022-11-25T02:15:06;5.20;99.90
11025;DHT22;22890;51.820;8.682;2022-11-25T02:17:33;5.20;99.90
11025;DHT22;22890;51.820;8.682;2022-11-25T02:22:49;5.20;99.90
11025;DHT22;22890;51.820;8.682;2022-11-25T02:28:05;5.20;99.90
11025;DHT22;22890;51.820;8.682;2022-11-25T02:30:33;5.20;99.90
11025;DHT22;22890;51.820;8.682;2022-11-25T02:33:01;5.20;99.90
11025;DHT22;22890;51.820;8.682;2022-11-25T02:38:07;5.30;99.90
11025;DHT22;22890;51.820;8.682;2022-11-25T02:40:39;5.30;99.90
11025;DHT22;22890;51.820;8.682;2022-11-25T02:50:41;5.50;99.90
11025;DHT22;22890;51.820;8.682;2022-11-25T02:53:08;5.60;99.90
11025;DHT22;22890;51.820;8.682;2022-11-25T03:07:50;5.70;99.90
11025;DHT22;22890;51.820;8.682;2022-11-25T03:10:17;5.70;99.90
11025;DHT22;22890;51.820;8.682;2022-11-25T03:20:06;5.80;99.90
11025;DHT22;22890;51.820;8.682;2022-11-25T03:22:33;5.80;99.90
11025;DHT22;22890;51.820;8.682;2022-11-25T03:37:17;5.80;99.90
11025;DHT22;22890;51.820;8.682;2022-11-25T03:44:39;5.80;99.90
11025;DHT22;22890;51.820;8.682;2022-11-25T03:49:32;5.80;99.90
11025;DHT22;22890;51.820;8.682;2022-11-25T03:51:59;5.80;99.90
11025;DHT22;22890;51.820;8.682;2022-11-25T03:59:20;5.80;99.90
11025;DHT22;22890;51.820;8.682;2022-11-25T04:09:09;5.90;99.90
11025;DHT22;22890;51.820;8.682;2022-11-25T04:16:50;5.90;99.90
11025;DHT22;22890;51.820;8.682;2022-11-25T04:29:12;6.20;99.90
11025;DHT22;22890;51.820;8.682;2022-11-25T04:36:32;6.20;99.90
11025;DHT22;22890;51.820;8.682;2022-11-25T04:46:22;6.30;99.90
11025;DHT22;22890;51.820;8.682;2022-11-25T04:53:44;6.50;99.90
11025;DHT22;22890;51.820;8.682;2022-11-25T04:56:17;6.50;99.90
11025;DHT22;22890;51.820;8.682;2022-11-25T05:03:56;6.60;99.90
11025;DHT22;22890;51.820;8.682;2022-11-25T05:06:23;6.60;99.90
11025;DHT22;22890;51.820;8.682;2022-11-25T05:18:39;6.80;99.90
11025;DHT22;22890;51.820;8.682;2022-11-25T05:23:32;6.90;99.90
11025;DHT22;22890;51.820;8.682;2022-11-25T05:26:01;6.90;99.90
11025;DHT22;22890;51.820;8.682;2022-11-25T05:28:29;6.90;99.90
11025;DHT22;22890;51.820;8.682;2022-11-25T05:35:55;7.00;99.90
11025;DHT22;22890;51.820;8.682;2022-11-25T05:43:16;7.00;99.90
11025;DHT22;22890;51.820;8.682;2022-11-25T05:48:10;7.10;99.90
11025;DHT22;22890;51.820;8.682;2022-11-25T05:50:37;7.10;99.90
11025;DHT22;22890;51.820;8.682;2022-11-25T05:53:04;7.10;99.90
11025;DHT22;22890;51.820;8.682;2022-11-25T05:55:31;7.10;99.90
11025;DHT22;22890;51.820;8.682;2022-11-25T05:57:58;7.20;99.90
11025;DHT22;22890;51.820;8.682;2022-11-25T06:00:25;7.20;99.90
11025;DHT22;22890;51.820;8.682;2022-11-25T06:02:52;7.20;99.90
11025;DHT22;22890;51.820;8.682;2022-11-25T06:10:15;7.30;99.90
11025;DHT22;22890;51.820;8.682;2022-11-25T06:15:09;7.40;99.90
11025;DHT22;22890;51.820;8.682;2022-11-25T06:20:05;7.40;99.90
11025;DHT22;22890;51.820;8.682;2022-11-25T06:22:32;7.30;99.90
11025;DHT22;22890;51.820;8.682;2022-11-25T06:24:59;7.40;99.90
11025;DHT22;22890;51.820;8.682;2022-11-25T06:27:29;7.40;99.90
11025;DHT22;22890;51.820;8.682;2022-11-25T06:32:43;7.30;99.90
11025;DHT22;22890;51.820;8.682;2022-11-25T06:35:10;7.50;99.90
11025;DHT22;22890;51.820;8.682;2022-11-25T06:37:37;7.50;99.90
11025;DHT22;22890;51.820;8.682;2022-11-25T06:40:04;7.50;99.90
11025;DHT22;22890;51.820;8.682;2022-11-25T06:54:46;7.70;99.90
11025;DHT22;22890;51.820;8.682;2022-11-25T06:57:16;7.70;99.90
11025;DHT22;22890;51.820;8.682;2022-11-25T07:02:13;7.70;99.90
11025;DHT22;22890;51.820;8.682;2022-11-25T07:07:07;7.70;99.90
11025;DHT22;22890;51.820;8.682;2022-11-25T07:24:17;7.90;99.90
11025;DHT22;22890;51.820;8.682;2022-11-25T07:29:13;7.90;99.90
11025;DHT22;22890;51.820;8.682;2022-11-25T07:34:34;7.70;99.90
11025;DHT22;22890;51.820;8.682;2022-11-25T07:37:00;8.00;99.90
11025;DHT22;22890;51.820;8.682;2022-11-25T07:44:21;7.90;99.90
11025;DHT22;22890;51.820;8.682;2022-11-25T07:46:48;8.00;99.90
11025;DHT22;22890;51.820;8.682;2022-11-25T07:49:17;8.00;99.90
11025;DHT22;22890;51.820;8.682;2022-11-25T07:51:48;7.90;99.90
11025;DHT22;22890;51.820;8.682;2022-11-25T07:54:15;8.00;99.90
11025;DHT22;22890;51.820;8.682;2022-11-25T07:56:42;7.90;99.90
11025;DHT22;22890;51.820;8.682;2022-11-25T07:59:16;8.00;99.90
11025;DHT22;22890;51.820;8.682;2022-11-25T08:01:43;8.00;99.90
11025;DHT22;22890;51.820;8.682;2022-11-25T08:04:11;8.00;99.90
11025;DHT22;22890;51.820;8.682;2022-11-25T08:06:47;8.10;99.90
11025;DHT22;22890;51.820;8.682;2022-11-25T08:09:16;8.10;99.90
11025;DHT22;22890;51.820;8.682;2022-11-25T08:14:12;8.10;99.90
11025;DHT22;22890;51.820;8.682;2022-11-25T08:19:08;8.20;99.90
11025;DHT22;22890;51.820;8.682;2022-11-25T08:26:34;8.20;99.90
11025;DHT22;22890;51.820;8.682;2022-11-25T08:29:05;8.30;99.90
11025;DHT22;22890;51.820;8.682;2022-11-25T08:31:34;8.20;99.90
11025;DHT22;22890;51.820;8.682;2022-11-25T08:36:30;8.30;99.90
11025;DHT22;22890;51.820;8.682;2022-11-25T08:38:58;8.20;99.90
11025;DHT22;22890;51.820;8.682;2022-11-25T08:41:35;8.20;99.90
11025;DHT22;22890;51.820;8.682;2022-11-25T08:44:05;8.20;99.90
11025;DHT22;22890;51.820;8.682;2022-11-25T08:46:34;8.30;99.90
11025;DHT22;22890;51.820;8.682;2022-11-25T08:49:03;8.30;99.90
11025;DHT22;22890;51.820;8.682;2022-11-25T08:51:32;8.30;99.90
11025;DHT22;22890;51.820;8.682;2022-11-25T08:53:59;8.30;99.90
11025;DHT22;22890;51.820;8.682;2022-11-25T08:56:26;8.30;99.90
11025;DHT22;22890;51.820;8.682;2022-11-25T08:58:53;8.40;99.90
11025;DHT22;22890;51.820;8.682;2022-11-25T09:01:21;8.50;99.90
11025;DHT22;22890;51.820;8.682;2022-11-25T09:03:50;8.40;99.90
11025;DHT22;22890;51.820;8.682;2022-11-25T09:06:17;8.50;99.90
11025;DHT22;22890;51.820;8.682;2022-11-25T09:08:45;8.50;99.90
11025;DHT22;22890;51.820;8.682;2022-11-25T09:11:12;8.60;99.90
11025;DHT22;22890;51.820;8.682;2022-11-25T09:13:39;8.60;99.90
11025;DHT22;22890;51.820;8.682;2022-11-25T09:21:10;8.60;99.90
11025;DHT22;22890;51.820;8.682;2022-11-25T09:23:38;8.60;99.90
11025;DHT22;22890;51.820;8.682;2022-11-25T09:26:06;8.70;99.90
11025;DHT22;22890;51.820;8.682;2022-11-25T09:28:34;8.60;99.90
11025;DHT22;22890;51.820;8.682;2022-11-25T09:31:08;8.70;99.90
11025;DHT22;22890;51.820;8.682;2022-11-25T09:36:03;8.80;99.90
11025;DHT22;22890;51.820;8.682;2022-11-25T09:41:02;8.80;99.90
11025;DHT22;22890;51.820;8.682;2022-11-25T09:43:34;8.80;99.90
11025;DHT22;22890;51.820;8.682;2022-11-25T09:49:35;8.90;99.90
11025;DHT22;22890;51.820;8.682;2022-11-25T09:52:21;8.90;99.90
11025;DHT22;22890;51.820;8.682;2022-11-25T09:57:58;9.00;99.90
11025;DHT22;22890;51.820;8.682;2022-11-25T10:00:35;8.90;99.90
11025;DHT22;22890;51.820;8.682;2022-11-25T10:06:00;9.00;99.90
11025;DHT22;22890;51.820;8.682;2022-11-25T10:08:38;9.00;99.90
11025;DHT22;22890;51.820;8.682;2022-11-25T10:11:20;9.10;99.90
11025;DHT22;22890;51.820;8.682;2022-11-25T10:19:04;9.20;99.90
11025;DHT22;22890;51.820;8.682;2022-11-25T10:21:31;9.30;99.90
11025;DHT22;22890;51.820;8.682;2022-11-25T10:26:30;9.40;99.90
11025;DHT22;22890;51.820;8.682;2022-11-25T10:31:43;9.40;99.90
11025;DHT22;22890;51.820;8.682;2022-11-25T10:34:47;9.50;99.90
11025;DHT22;22890;51.820;8.682;2022-11-25T10:37:28;9.60;99.90
11025;DHT22;22890;51.820;8.682;2022-11-25T10:39:56;9.50;99.90
11025;DHT22;22890;51.820;8.682;2022-11-25T10:42:25;9.20;99.90
11025;DHT22;22890;51.820;8.682;2022-11-25T10:47:36;9.60;99.90
11025;DHT22;22890;51.820;8.682;2022-11-25T10:52:59;9.70;99.90
11025;DHT22;22890;51.820;8.682;2022-11-25T10:55:28;9.60;99.90
11025;DHT22;22890;51.820;8.682;2022-11-25T11:02:56;9.70;99.90
11025;DHT22;22890;51.820;8.682;2022-11-25T11:13:20;9.70;99.90
11025;DHT22;22890;51.820;8.682;2022-11-25T11:15:48;9.90;99.90
11025;DHT22;22890;51.820;8.682;2022-11-25T11:18:25;9.80;99.90
11025;DHT22;22890;51.820;8.682;2022-11-25T11:20:54;9.90;99.90
11025;DHT22;22890;51.820;8.682;2022-11-25T11:23:22;9.90;99.90
11025;DHT22;22890;51.820;8.682;2022-11-25T11:26:05;9.90;99.90
11025;DHT22;22890;51.820;8.682;2022-11-25T11:31:21;10.00;99.90
11025;DHT22;22890;51.820;8.682;2022-11-25T11:36:54;10.00;99.90
11025;DHT22;22890;51.820;8.682;2022-11-25T11:42:46;10.20;99.90
11025;DHT22;22890;51.820;8.682;2022-11-25T11:50:46;10.30;99.90
11025;DHT22;22890;51.820;8.682;2022-11-25T11:56:32;10.40;99.90
11025;DHT22;22890;51.820;8.682;2022-11-25T12:05:12;10.60;99.90
11025;DHT22;22890;51.820;8.682;2022-11-25T12:08:09;10.90;99.90
11025;DHT22;22890;51.820;8.682;2022-11-25T12:11:00;10.70;99.90
11025;DHT22;22890;51.820;8.682;2022-11-25T12:13:58;10.80;99.90
11025;DHT22;22890;51.820;8.682;2022-11-25T12:16:37;10.80;99.90
11025;DHT22;22890;51.820;8.682;2022-11-25T12:22:45;10.60;99.90
11025;DHT22;22890;51.820;8.682;2022-11-25T12:24:56;10.70;99.90
11025;DHT22;22890;51.820;8.682;2022-11-25T12:27:36;10.80;99.90
11025;DHT22;22890;51.820;8.682;2022-11-25T12:30:08;10.80;99.90
11025;DHT22;22890;51.820;8.682;2022-11-25T12:32:56;10.80;99.90
11025;DHT22;22890;51.820;8.682;2022-11-25T12:38:09;10.80;99.90
11025;DHT22;22890;51.820;8.682;2022-11-25T12:40:46;10.60;99.90
11025;DHT22;22890;51.820;8.682;2022-11-25T12:43:36;10.80;99.90
11025;DHT22;22890;51.820;8.682;2022-11-25T12:48:56;11.00;99.90
11025;DHT22;22890;51.820;8.682;2022-11-25T12:52:03;10.90;99.90
11025;DHT22;22890;51.820;8.682;2022-11-25T12:54:52;10.90;99.90
11025;DHT22;22890;51.820;8.682;2022-11-25T13:09:23;11.00;99.90
11025;DHT22;22890;51.820;8.682;2022-11-25T13:17:55;10.80;99.90
11025;DHT22;22890;51.820;8.682;2022-11-25T13:23:06;11.00;99.90
11025;DHT22;22890;51.820;8.682;2022-11-25T13:25:39;11.00;99.90
11025;DHT22;22890;51.820;8.682;2022-11-25T13:28:34;11.00;99.90
11025;DHT22;22890;51.820;8.682;2022-11-25T13:31:21;11.00;99.90
11025;DHT22;22890;51.820;8.682;2022-11-25T13:33:58;11.10;99.90
11025;DHT22;22890;51.820;8.682;2022-11-25T13:36:51;11.10;99.90
11025;DHT22;22890;51.820;8.682;2022-11-25T13:39:38;11.00;99.90
11025;DHT22;22890;51.820;8.682;2022-11-25T13:42:20;11.10;99.90
11025;DHT22;22890;51.820;8.682;2022-11-25T13:44:53;11.10;99.90
11025;DHT22;22890;51.820;8.682;2022-11-25T13:54:48;11.10;99.90
11025;DHT22;22890;51.820;8.682;2022-11-25T13:57:31;11.10;99.90
11025;DHT22;22890;51.820;8.682;2022-11-25T14:00:05;11.20;99.90
11025;DHT22;22890;51.820;8.682;2022-11-25T14:02:38;11.20;99.90
11025;DHT22;22890;51.820;8.682;2022-11-25T14:07:41;11.10;99.90
11025;DHT22;22890;51.820;8.682;2022-11-25T14:10:24;11.00;99.90
11025;DHT22;22890;51.820;8.682;2022-11-25T14:13:29;11.10;99.90
11025;DHT22;22890;51.820;8.682;2022-11-25T14:25:24;11.00;99.90
11025;DHT22;22890;51.820;8.682;2022-11-25T14:30:52;11.00;99.90
11025;DHT22;22890;51.820;8.682;2022-11-25T14:33:24;11.00;99.90
11025;DHT22;22890;51.820;8.682;2022-11-25T14:35:55;10.90;99.90
11025;DHT22;22890;51.820;8.682;2022-11-25T14:38:37;10.90;99.90
11025;DHT22;22890;51.820;8.682;2022-11-25T14:41:15;10.90;99.90
11025;DHT22;22890;51.820;8.682;2022-11-25T14:43:47;10.90;99.90
11025;DHT22;22890;51.820;8.682;2022-11-25T14:46:18;10.90;99.90
11025;DHT22;22890;51.820;8.682;2022-11-25T14:48:56;10.90;99.90
11025;DHT22;22890;51.820;8.682;2022-11-25T14:51:25;10.80;99.90
11025;DHT22;22890;51.820;8.682;2022-11-25T14:56:31;10.90;99.90
11025;DHT22;22890;51.820;8.682;2022-11-25T14:58:58;10.80;99.90
11025;DHT22;22890;51.820;8.682;2022-11-25T15:01:28;10.80;99.90
11025;DHT22;22890;51.820;8.682;2022-11-25T15:04:04;10.80;99.90
11025;DHT22;22890;51.820;8.682;2022-11-25T15:06:37;10.80;99.90
11025;DHT22;22890;51.820;8.682;2022-11-25T15:09:18;10.80;99.90
11025;DHT22;22890;51.820;8.682;2022-11-25T15:14:24;10.80;99.90
11025;DHT22;22890;51.820;8.682;2022-11-25T15:16:52;10.70;99.90
11025;DHT22;22890;51.820;8.682;2022-11-25T15:19:21;10.70;99.90
11025;DHT22;22890;51.820;8.682;2022-11-25T15:22:03;10.80;99.90
11025;DHT22;22890;51.820;8.682;2022-11-25T15:24:54;10.70;99.90
11025;DHT22;22890;51.820;8.682;2022-11-25T15:27:31;10.60;99.90
11025;DHT22;22890;51.820;8.682;2022-11-25T15:32:27;10.50;99.90
11025;DHT22;22890;51.820;8.682;2022-11-25T15:34:57;10.60;99.90
11025;DHT22;22890;51.820;8.682;2022-11-25T15:40:30;10.60;99.90
11025;DHT22;22890;51.820;8.682;2022-11-25T15:42:58;10.50;99.90
11025;DHT22;22890;51.820;8.682;2022-11-25T15:45:33;10.50;99.90
11025;DHT22;22890;51.820;8.682;2022-11-25T15:48:01;10.50;99.90
11025;DHT22;22890;51.820;8.682;2022-11-25T15:50:29;10.50;99.90
11025;DHT22;22890;51.820;8.682;2022-11-25T15:52:58;10.40;99.90
11025;DHT22;22890;51.820;8.682;2022-11-25T15:55:34;10.40;99.90
11025;DHT22;22890;51.820;8.682;2022-11-25T15:58:15;10.40;99.90
11025;DHT22;22890;51.820;8.682;2022-11-25T16:01:05;10.40;99.90
11025;DHT22;22890;51.820;8.682;2022-11-25T16:03:33;10.30;99.90
11025;DHT22;22890;51.820;8.682;2022-11-25T16:06:01;10.30;99.90
11025;DHT22;22890;51.820;8.682;2022-11-25T16:08:35;10.30;99.90
11025;DHT22;22890;51.820;8.682;2022-11-25T16:11:14;10.30;99.90
11025;DHT22;22890;51.820;8.682;2022-11-25T16:19:16;10.20;99.90
11025;DHT22;22890;51.820;8.682;2022-11-25T16:21:51;10.10;99.90
11025;DHT22;22890;51.820;8.682;2022-11-25T16:24:25;10.10;99.90
11025;DHT22;22890;51.820;8.682;2022-11-25T16:27:22;10.00;99.90
11025;DHT22;22890;51.820;8.682;2022-11-25T16:32:25;10.00;99.90
11025;DHT22;22890;51.820;8.682;2022-11-25T16:34:55;12.60;99.90
11025;DHT22;22890;51.820;8.682;2022-11-25T16:42:18;9.90;99.90
11025;DHT22;22890;51.820;8.682;2022-11-25T16:44:50;9.90;99.90
11025;DHT22;22890;51.820;8.682;2022-11-25T16:47:18;9.80;99.90
11025;DHT22;22890;51.820;8.682;2022-11-25T16:52:13;9.90;99.90
11025;DHT22;22890;51.820;8.682;2022-11-25T16:54:39;9.90;99.90
11025;DHT22;22890;51.820;8.682;2022-11-25T16:57:15;10.10;99.90
11025;DHT22;22890;51.820;8.682;2022-11-25T16:59:43;9.90;99.90
11025;DHT22;22890;51.820;8.682;2022-11-25T17:02:20;9.90;99.90
11025;DHT22;22890;51.820;8.682;2022-11-25T17:04:48;10.00;99.90
11025;DHT22;22890;51.820;8.682;2022-11-25T17:07:16;9.90;99.90
11025;DHT22;22890;51.820;8.682;2022-11-25T17:09:58;9.90;99.90
11025;DHT22;22890;51.820;8.682;2022-11-25T17:12:28;9.90;99.90
11025;DHT22;22890;51.820;8.682;2022-11-25T17:14:57;9.80;99.90
11025;DHT22;22890;51.820;8.682;2022-11-25T17:17:25;9.90;99.90
11025;DHT22;22890;51.820;8.682;2022-11-25T17:19:53;9.90;99.90
11025;DHT22;22890;51.820;8.682;2022-11-25T17:22:23;9.90;99.90
11025;DHT22;22890;51.820;8.682;2022-11-25T17:24:50;9.90;99.90
11025;DHT22;22890;51.820;8.682;2022-11-25T17:27:28;10.00;99.90
11025;DHT22;22890;51.820;8.682;2022-11-25T17:29:56;10.00;99.90
11025;DHT22;22890;51.820;8.682;2022-11-25T17:32:24;10.00;99.90
11025;DHT22;22890;51.820;8.682;2022-11-25T17:34:51;10.00;99.90
11025;DHT22;22890;51.820;8.682;2022-11-25T17:37:21;10.00;99.90
11025;DHT22;22890;51.820;8.682;2022-11-25T17:39:52;10.00;99.90
11025;DHT22;22890;51.820;8.682;2022-11-25T17:42:26;10.00;99.90
11025;DHT22;22890;51.820;8.682;2022-11-25T17:44:53;10.00;99.90
11025;DHT22;22890;51.820;8.682;2022-11-25T17:47:20;10.00;99.90
11025;DHT22;22890;51.820;8.682;2022-11-25T17:49:46;9.90;99.90
11025;DHT22;22890;51.820;8.682;2022-11-25T17:52:14;9.90;99.90
11025;DHT22;22890;51.820;8.682;2022-11-25T17:54:41;10.00;99.90
11025;DHT22;22890;51.820;8.682;2022-11-25T17:57:13;10.00;99.90
11025;DHT22;22890;51.820;8.682;2022-11-25T17:59:40;10.00;99.90
11025;DHT22;22890;51.820;8.682;2022-11-25T18:02:16;10.00;99.90
11025;DHT22;22890;51.820;8.682;2022-11-25T18:04:44;10.00;99.90
11025;DHT22;22890;51.820;8.682;2022-11-25T18:07:10;10.00;99.90
11025;DHT22;22890;51.820;8.682;2022-11-25T18:09:37;9.90;99.90
11025;DHT22;22890;51.820;8.682;2022-11-25T18:12:08;9.90;99.90
11025;DHT22;22890;51.820;8.682;2022-11-25T18:14:38;9.90;99.90
11025;DHT22;22890;51.820;8.682;2022-11-25T18:17:11;10.00;99.90
11025;DHT22;22890;51.820;8.682;2022-11-25T18:19:41;10.00;99.90
11025;DHT22;22890;51.820;8.682;2022-11-25T18:22:12;10.00;99.90
11025;DHT22;22890;51.820;8.682;2022-11-25T18:24:39;9.90;99.90
11025;DHT22;22890;51.820;8.682;2022-11-25T18:27:27;9.90;99.90
11025;DHT22;22890;51.820;8.682;2022-11-25T18:29:54;9.90;99.90
11025;DHT22;22890;51.820;8.682;2022-11-25T18:32:22;10.00;99.90
11025;DHT22;22890;51.820;8.682;2022-11-25T18:34:50;9.90;99.90
11025;DHT22;22890;51.820;8.682;2022-11-25T18:37:17;9.90;99.90
11025;DHT22;22890;51.820;8.682;2022-11-25T18:39:43;10.00;99.90
11025;DHT22;22890;51.820;8.682;2022-11-25T18:42:25;10.00;99.90
11025;DHT22;22890;51.820;8.682;2022-11-25T18:44:55;10.00;99.90
11025;DHT22;22890;51.820;8.682;2022-11-25T18:47:22;10.00;99.90
11025;DHT22;22890;51.820;8.682;2022-11-25T18:49:49;10.00;99.90
11025;DHT22;22890;51.820;8.682;2022-11-25T18:52:21;10.00;99.90
11025;DHT22;22890;51.820;8.682;2022-11-25T18:54:48;10.00;99.90
11025;DHT22;22890;51.820;8.682;2022-11-25T18:57:15;10.00;99.90
11025;DHT22;22890;51.820;8.682;2022-11-25T18:59:42;10.00;99.90
11025;DHT22;22890;51.820;8.682;2022-11-25T19:02:14;10.00;99.90
11025;DHT22;22890;51.820;8.682;2022-11-25T19:04:41;10.10;99.90
11025;DHT22;22890;51.820;8.682;2022-11-25T19:07:08;10.00;99.90
11025;DHT22;22890;51.820;8.682;2022-11-25T19:09:35;10.30;99.90
11025;DHT22;22890;51.820;8.682;2022-11-25T19:12:02;10.00;99.90
11025;DHT22;22890;51.820;8.682;2022-11-25T19:14:32;9.90;99.90
11025;DHT22;22890;51.820;8.682;2022-11-25T19:17:04;9.90;99.90
11025;DHT22;22890;51.820;8.682;2022-11-25T19:19:32;9.90;99.90
11025;DHT22;22890;51.820;8.682;2022-11-25T19:21:59;9.80;99.90
11025;DHT22;22890;51.820;8.682;2022-11-25T19:24:27;9.80;99.90
11025;DHT22;22890;51.820;8.682;2022-11-25T19:26:56;9.80;99.90
11025;DHT22;22890;51.820;8.682;2022-11-25T19:29:34;9.80;99.90
11025;DHT22;22890;51.820;8.682;2022-11-25T19:32:23;9.80;99.90
11025;DHT22;22890;51.820;8.682;2022-11-25T19:35:00;9.70;99.90
11025;DHT22;22890;51.820;8.682;2022-11-25T19:37:28;9.70;99.90
11025;DHT22;22890;51.820;8.682;2022-11-25T19:39:57;9.60;99.90
11025;DHT22;22890;51.820;8.682;2022-11-25T19:42:24;9.70;99.90
11025;DHT22;22890;51.820;8.682;2022-11-25T19:44:51;9.70;99.90
11025;DHT22;22890;51.820;8.682;2022-11-25T19:47:25;9.60;99.90
11025;DHT22;22890;51.820;8.682;2022-11-25T19:49:54;9.60;99.90
11025;DHT22;22890;51.820;8.682;2022-11-25T19:52:27;9.50;99.90
11025;DHT22;22890;51.820;8.682;2022-11-25T19:54:55;9.50;99.90
11025;DHT22;22890;51.820;8.682;2022-11-25T19:57:23;9.50;99.90
11025;DHT22;22890;51.820;8.682;2022-11-25T19:59:50;9.40;99.90
11025;DHT22;22890;51.820;8.682;2022-11-25T20:02:22;9.40;99.90
11025;DHT22;22890;51.820;8.682;2022-11-25T20:04:52;9.40;99.90
11025;DHT22;22890;51.820;8.682;2022-11-25T20:07:20;9.40;99.90
11025;DHT22;22890;51.820;8.682;2022-11-25T20:09:48;9.40;99.90
11025;DHT22;22890;51.820;8.682;2022-11-25T20:12:22;9.50;99.90
11025;DHT22;22890;51.820;8.682;2022-11-25T20:14:50;9.50;99.90
11025;DHT22;22890;51.820;8.682;2022-11-25T20:17:35;9.50;99.90
11025;DHT22;22890;51.820;8.682;2022-11-25T20:20:16;9.50;99.90
11025;DHT22;22890;51.820;8.682;2022-11-25T20:22:58;9.40;99.90
11025;DHT22;22890;51.820;8.682;2022-11-25T20:25:27;9.40;99.90
11025;DHT22;22890;51.820;8.682;2022-11-25T20:27:54;9.40;99.90
11025;DHT22;22890;51.820;8.682;2022-11-25T20:30:24;9.40;99.90
11025;DHT22;22890;51.820;8.682;2022-11-25T20:32:52;9.40;99.90
11025;DHT22;22890;51.820;8.682;2022-11-25T20:37:46;9.40;99.90
11025;DHT22;22890;51.820;8.682;2022-11-25T20:40:21;9.30;99.90
11025;DHT22;22890;51.820;8.682;2022-11-25T20:42:49;9.40;99.90
11025;DHT22;22890;51.820;8.682;2022-11-25T20:45:21;9.40;99.90
11025;DHT22;22890;51.820;8.682;2022-11-25T20:47:49;9.40;99.90
11025;DHT22;22890;51.820;8.682;2022-11-25T20:50:18;9.40;99.90
11025;DHT22;22890;51.820;8.682;2022-11-25T20:52:46;9.40;99.90
11025;DHT22;22890;51.820;8.682;2022-11-25T20:55:22;9.40;99.90
11025;DHT22;22890;51.820;8.682;2022-11-25T20:57:51;9.40;99.90
11025;DHT22;22890;51.820;8.682;2022-11-25T21:00:26;9.40;99.90
11025;DHT22;22890;51.820;8.682;2022-11-25T21:02:54;9.40;99.90
11025;DHT22;22890;51.820;8.682;2022-11-25T21:07:49;9.40;99.90
11025;DHT22;22890;51.820;8.682;2022-11-25T21:10:29;9.50;99.90
11025;DHT22;22890;51.820;8.682;2022-11-25T21:13:12;9.50;99.90
11025;DHT22;22890;51.820;8.682;2022-11-25T21:15:39;9.50;99.90
11025;DHT22;22890;51.820;8.682;2022-11-25T21:18:05;9.50;99.90
11025;DHT22;22890;51.820;8.682;2022-11-25T21:20:32;9.70;99.90
11025;DHT22;22890;51.820;8.682;2022-11-25T21:25:32;9.60;99.90
11025;DHT22;22890;51.820;8.682;2022-11-25T21:30:28;9.60;99.90
11025;DHT22;22890;51.820;8.682;2022-11-25T21:32:58;9.60;99.90
11025;DHT22;22890;51.820;8.682;2022-11-25T21:35:33;9.70;99.90
11025;DHT22;22890;51.820;8.682;2022-11-25T21:38:03;9.70;99.90
11025;DHT22;22890;51.820;8.682;2022-11-25T21:40:37;9.60;99.90
11025;DHT22;22890;51.820;8.682;2022-11-25T21:43:08;9.70;99.90
11025;DHT22;22890;51.820;8.682;2022-11-25T21:45:46;9.70;99.90
11025;DHT22;22890;51.820;8.682;2022-11-25T21:48:21;9.60;99.90
11025;DHT22;22890;51.820;8.682;2022-11-25T21:50:48;9.70;99.90
11025;DHT22;22890;51.820;8.682;2022-11-25T21:53:15;9.70;99.90
11025;DHT22;22890;51.820;8.682;2022-11-25T21:58:18;9.60;99.90
11025;DHT22;22890;51.820;8.682;2022-11-25T22:00:48;9.60;99.90
11025;DHT22;22890;51.820;8.682;2022-11-25T22:03:17;9.60;99.90
11025;DHT22;22890;51.820;8.682;2022-11-25T22:10:40;9.70;99.90
11025;DHT22;22890;51.820;8.682;2022-11-25T22:13:15;9.70;99.90
11025;DHT22;22890;51.820;8.682;2022-11-25T22:15:43;9.70;99.90
11025;DHT22;22890;51.820;8.682;2022-11-25T22:18:18;9.80;99.90
11025;DHT22;22890;51.820;8.682;2022-11-25T22:23:19;9.80;99.90
11025;DHT22;22890;51.820;8.682;2022-11-25T22:25:48;9.70;99.90
11025;DHT22;22890;51.820;8.682;2022-11-25T22:28:18;9.70;99.90
11025;DHT22;22890;51.820;8.682;2022-11-25T22:31:03;9.70;99.90
11025;DHT22;22890;51.820;8.682;2022-11-25T22:33:35;9.70;99.90
11025;DHT22;22890;51.820;8.682;2022-11-25T22:36:03;9.70;99.90
11025;DHT22;22890;51.820;8.682;2022-11-25T22:38:30;9.70;99.90
11025;DHT22;22890;51.820;8.682;2022-11-25T22:40:59;9.70;99.90
11025;DHT22;22890;51.820;8.682;2022-11-25T22:43:32;9.90;99.90
11025;DHT22;22890;51.820;8.682;2022-11-25T22:46:01;9.80;99.90
11025;DHT22;22890;51.820;8.682;2022-11-25T22:48:35;9.80;99.90
11025;DHT22;22890;51.820;8.682;2022-11-25T22:51:04;9.80;99.90
11025;DHT22;22890;51.820;8.682;2022-11-25T22:55:58;9.80;99.90
11025;DHT22;22890;51.820;8.682;2022-11-25T23:00:53;9.70;99.90